createdAt,value
2019-04-10T00:00:35.457Z,36.20
2019-04-10T00:03:06.205Z,36.97
2019-04-10T00:05:36.361Z,36.10
2019-04-10T00:08:06.410Z,36.27
2019-04-10T00:10:36.507Z,38.07
2019-04-10T00:13:06.796Z,36.47
2019-04-10T00:15:36.779Z,37.50
2019-04-10T00:18:07.424Z,38.67
2019-04-10T00:20:37.566Z,37.45
2019-04-10T00:23:08.652Z,38.10
2019-04-10T00:25:39.275Z,37.20
2019-04-10T00:28:09.568Z,37.33
2019-04-10T00:30:39.688Z,38.30
2019-04-10T00:33:10.252Z,37.50
2019-04-10T00:35:40.436Z,37.10
2019-04-10T00:38:10.474Z,40.38
2019-04-10T00:40:41.407Z,38.00
2019-04-10T00:43:12.708Z,38.33
2019-04-10T00:45:43.889Z,38.05
2019-04-10T00:48:14.083Z,37.80
2019-04-10T00:50:44.624Z,38.63
2019-04-10T00:53:14.835Z,35.83
2019-04-10T00:55:46.043Z,38.20
2019-04-10T00:58:16.285Z,35.17
2019-04-10T01:00:47.489Z,36.50
2019-04-10T01:03:35.794Z,36.88
2019-04-10T01:06:06.073Z,36.90
2019-04-10T01:08:37.052Z,36.80
2019-04-10T01:11:07.178Z,36.65
2019-04-10T01:13:37.197Z,37.80
2019-04-10T01:16:07.323Z,36.87
2019-04-10T01:18:37.488Z,37.17
2019-04-10T01:21:08.323Z,36.60
2019-04-10T01:23:39.312Z,38.10
2019-04-10T01:26:10.433Z,35.78
2019-04-10T01:28:40.897Z,37.00
2019-04-10T01:31:11.035Z,38.23
2019-04-10T01:33:41.104Z,36.17
2019-04-10T01:36:11.222Z,37.00
2019-04-10T01:38:41.865Z,36.93
2019-04-10T01:41:12.032Z,36.80
2019-04-10T01:43:42.040Z,36.20
2019-04-10T01:46:12.103Z,38.37
2019-04-10T01:48:42.199Z,37.88
2019-04-10T01:51:12.292Z,38.00
2019-04-10T01:53:42.363Z,36.33
2019-04-10T01:56:22.983Z,36.05
2019-04-10T01:58:46.132Z,34.90
2019-04-10T02:01:22.304Z,35.23
2019-04-10T02:03:52.333Z,34.37
2019-04-10T02:06:22.418Z,34.30
2019-04-10T02:08:52.483Z,34.30
2019-04-10T02:11:22.573Z,34.73
2019-04-10T02:13:52.667Z,36.23
2019-04-10T02:16:22.897Z,37.30
2019-04-10T02:18:54.449Z,33.67
2019-04-10T02:21:25.413Z,34.80
2019-04-10T02:23:55.538Z,33.47
2019-04-10T02:26:25.637Z,34.90
2019-04-10T02:28:55.721Z,35.70
2019-04-10T02:31:27.944Z,34.93
2019-04-10T02:33:59.545Z,33.97
2019-04-10T02:36:31.509Z,35.50
2019-04-10T02:39:15.115Z,33.30
2019-04-10T02:41:34.615Z,34.25
2019-04-10T02:44:05.140Z,33.23
2019-04-10T02:46:36.767Z,34.37
2019-04-10T02:49:08.217Z,35.23
2019-04-10T02:51:39.049Z,35.47
2019-04-10T02:54:09.551Z,35.07
2019-04-10T02:56:41.144Z,34.57
2019-04-10T02:59:11.352Z,35.00
2019-04-10T03:01:41.727Z,32.97
2019-04-10T03:04:13.316Z,35.57
2019-04-10T03:06:45.092Z,35.33
2019-04-10T03:09:35.228Z,34.40
2019-04-10T03:11:47.492Z,33.33
2019-04-10T03:14:18.978Z,33.47
2019-04-10T03:16:49.531Z,33.30
2019-04-10T03:19:19.693Z,33.77
2019-04-10T03:21:49.791Z,32.98
2019-04-10T03:24:19.945Z,35.57
2019-04-10T03:26:50.023Z,35.13
2019-04-10T03:29:20.049Z,32.73
2019-04-10T03:31:52.287Z,33.03
2019-04-10T03:34:33.233Z,36.17
2019-04-10T03:37:01.647Z,33.78
2019-04-10T03:39:35.549Z,34.73
2019-04-10T03:42:04.655Z,34.53
2019-04-10T03:44:34.761Z,33.63
2019-04-10T03:47:05.000Z,34.23
2019-04-10T03:49:36.116Z,33.27
2019-04-10T03:52:07.245Z,33.00
2019-04-10T03:54:37.884Z,35.20
2019-04-10T03:57:10.042Z,33.75
2019-04-10T03:59:41.436Z,34.80
2019-04-10T04:02:11.962Z,32.87
2019-04-10T04:04:42.073Z,34.90
2019-04-10T04:07:13.185Z,34.63
2019-04-10T04:09:44.006Z,33.93
2019-04-10T04:12:14.742Z,33.60
2019-04-10T04:14:44.809Z,34.67
2019-04-10T04:17:15.784Z,36.77
2019-04-10T04:19:46.322Z,37.10
2019-04-10T04:22:16.749Z,36.00
2019-04-10T04:24:46.829Z,34.77
2019-04-10T04:27:17.354Z,35.80
2019-04-10T04:29:49.790Z,38.17
2019-04-10T04:32:20.045Z,36.20
2019-04-10T04:34:50.121Z,36.47
2019-04-10T04:37:20.842Z,36.47
2019-04-10T04:39:52.096Z,38.60
2019-04-10T04:42:22.396Z,37.33
2019-04-10T04:44:52.473Z,36.40
2019-04-10T04:47:22.547Z,35.20
2019-04-10T04:49:54.410Z,34.23
2019-04-10T04:52:24.592Z,35.93
2019-04-10T04:54:55.272Z,36.60
2019-04-10T04:57:25.297Z,36.60
2019-04-10T04:59:55.407Z,35.33
2019-04-10T05:02:26.205Z,37.27
2019-04-10T05:04:56.318Z,37.50
2019-04-10T05:07:26.435Z,37.23
2019-04-10T05:09:59.057Z,35.80
2019-04-10T05:12:28.767Z,36.20
2019-04-10T05:14:58.873Z,37.17
2019-04-10T05:17:29.056Z,36.47
2019-04-10T05:19:59.432Z,36.97
2019-04-10T05:22:29.584Z,38.23
2019-04-10T05:25:00.676Z,38.43
2019-04-10T05:27:30.995Z,38.70
2019-04-10T05:30:02.269Z,37.17
2019-04-10T05:32:32.939Z,37.37
2019-04-10T05:35:05.818Z,37.23
2019-04-10T05:37:35.882Z,37.47
2019-04-10T05:40:07.578Z,37.93
2019-04-10T05:42:38.161Z,36.70
2019-04-10T05:45:09.213Z,36.87
2019-04-10T05:47:39.460Z,37.90
2019-04-10T05:50:10.775Z,36.67
2019-04-10T05:52:40.996Z,35.98
2019-04-10T05:55:11.835Z,37.93
2019-04-10T05:57:42.673Z,37.53
2019-04-10T06:00:14.261Z,37.80
2019-04-10T06:02:44.281Z,36.77
2019-04-10T06:05:14.344Z,38.60
2019-04-10T06:07:45.381Z,38.13
2019-04-10T06:10:15.547Z,38.27
2019-04-10T06:12:46.676Z,39.40
2019-04-10T06:15:16.973Z,37.50
2019-04-10T06:17:47.036Z,38.00
2019-04-10T06:20:17.515Z,38.00
2019-04-10T06:22:47.649Z,38.30
2019-04-10T06:25:19.595Z,37.57
2019-04-10T06:27:52.648Z,39.40
2019-04-10T06:30:23.908Z,40.17
2019-04-10T06:32:55.750Z,38.13
2019-04-10T06:35:26.198Z,39.87
2019-04-10T06:37:56.821Z,38.70
2019-04-10T06:40:27.956Z,40.47
2019-04-10T06:42:59.450Z,38.40
2019-04-10T06:45:29.798Z,39.03
2019-04-10T06:48:00.501Z,39.20
2019-04-10T06:50:31.599Z,39.23
2019-04-10T06:53:01.897Z,39.23
2019-04-10T06:55:32.317Z,40.43
2019-04-10T06:58:02.792Z,39.63
2019-04-10T07:00:32.869Z,40.10
2019-04-10T07:03:03.148Z,42.43
2019-04-10T07:05:41.361Z,41.00
2019-04-10T07:08:13.439Z,41.57
2019-04-10T07:10:47.961Z,41.27
2019-04-10T07:13:10.372Z,41.57
2019-04-10T07:15:42.887Z,39.87
2019-04-10T07:18:15.973Z,42.90
2019-04-10T07:20:44.368Z,39.67
2019-04-10T07:23:19.238Z,40.93
2019-04-10T07:25:47.254Z,40.07
2019-04-10T07:28:18.158Z,41.97
2019-04-10T07:30:48.251Z,42.30
2019-04-10T07:33:19.593Z,40.75
2019-04-10T07:35:50.134Z,42.55
2019-04-10T07:38:21.310Z,43.03
2019-04-10T07:40:51.915Z,43.73
2019-04-10T07:43:25.577Z,42.05
2019-04-10T07:45:56.677Z,40.67
2019-04-10T07:48:25.702Z,42.70
2019-04-10T07:50:56.349Z,41.80
2019-04-10T07:53:26.820Z,43.37
2019-04-10T07:56:05.303Z,42.40
2019-04-10T07:58:29.347Z,41.90
2019-04-10T08:00:59.487Z,43.00
2019-04-10T08:03:29.603Z,42.77
2019-04-10T08:06:00.413Z,43.03
2019-04-10T08:08:30.488Z,42.43
2019-04-10T08:11:01.601Z,43.28
2019-04-10T08:13:32.992Z,42.23
2019-04-10T08:16:03.206Z,43.60
2019-04-10T08:18:33.237Z,45.17
2019-04-10T08:21:03.302Z,43.10
2019-04-10T08:23:33.754Z,43.23
2019-04-10T08:26:03.993Z,43.87
2019-04-10T08:28:35.030Z,44.63
2019-04-10T08:31:06.485Z,45.87
2019-04-10T08:33:36.763Z,45.40
2019-04-10T08:36:07.448Z,46.87
2019-04-10T08:38:38.095Z,45.43
2019-04-10T08:41:08.710Z,46.33
2019-04-10T08:43:39.679Z,46.57
2019-04-10T08:46:10.754Z,46.20
2019-04-10T08:48:44.124Z,46.37
2019-04-10T08:51:14.926Z,47.10
2019-04-10T08:53:46.700Z,45.45
2019-04-10T08:56:16.896Z,48.38
2019-04-10T08:58:48.248Z,46.60
2019-04-10T09:01:18.564Z,47.73
2019-04-10T09:03:48.920Z,46.87
2019-04-10T09:06:19.509Z,46.70
2019-04-10T09:08:49.605Z,48.30
2019-04-10T09:11:26.379Z,123.13
2019-04-10T09:13:52.743Z,60.00
2019-04-10T09:16:23.046Z,47.23
2019-04-10T09:18:53.800Z,47.80
2019-04-10T09:21:24.308Z,48.27
2019-04-10T09:23:57.276Z,48.53
2019-04-10T09:26:26.542Z,49.10
2019-04-10T09:28:57.085Z,50.23
2019-04-10T09:31:27.229Z,50.67
2019-04-10T09:33:57.282Z,49.43
2019-04-10T09:36:27.328Z,48.43
2019-04-10T09:38:57.465Z,49.77
2019-04-10T09:41:28.053Z,49.20
2019-04-10T09:43:58.372Z,49.67
2019-04-10T09:46:28.875Z,50.50
2019-04-10T09:48:59.139Z,50.67
2019-04-10T09:51:29.702Z,49.10
2019-04-10T09:53:59.874Z,48.30
2019-04-10T09:56:30.007Z,49.47
2019-04-10T09:59:00.875Z,52.88
2019-04-10T10:01:31.085Z,49.53
2019-04-10T10:04:01.312Z,64.97
2019-04-10T10:06:34.890Z,54.57
2019-04-10T10:09:04.723Z,52.70
2019-04-10T10:11:34.928Z,52.93
2019-04-10T10:14:06.130Z,48.80
2019-04-10T10:16:36.331Z,52.03
2019-04-10T10:19:06.514Z,52.10
2019-04-10T10:21:36.669Z,51.03
2019-04-10T10:24:06.786Z,52.63
2019-04-10T10:26:36.962Z,53.57
2019-04-10T10:29:07.128Z,50.50
2019-04-10T10:31:38.017Z,50.23
2019-04-10T10:34:08.167Z,50.53
2019-04-10T10:36:41.942Z,54.60
2019-04-10T10:39:18.992Z,50.40
2019-04-10T10:41:49.298Z,52.43
2019-04-10T10:44:19.406Z,51.40
2019-04-10T10:46:49.592Z,50.80
2019-04-10T10:49:20.162Z,49.33
2019-04-10T10:51:51.077Z,52.48
2019-04-10T10:54:21.303Z,50.95
2019-04-10T10:56:51.435Z,47.27
2019-04-10T10:59:21.843Z,56.40
2019-04-10T11:01:52.011Z,43.43
2019-04-10T11:04:23.165Z,90.57
2019-04-10T11:06:59.567Z,42.23
2019-04-10T11:09:26.211Z,42.67
2019-04-10T11:11:57.394Z,41.53
2019-04-10T11:14:27.800Z,41.70
2019-04-10T11:16:57.955Z,42.90
2019-04-10T11:19:29.054Z,41.47
2019-04-10T11:21:59.249Z,43.60
2019-04-10T11:24:29.351Z,43.43
2019-04-10T11:27:00.062Z,45.13
2019-04-10T11:29:31.458Z,46.60
2019-04-10T11:32:02.259Z,46.63
2019-04-10T11:34:34.428Z,45.33
2019-04-10T11:37:21.563Z,46.20
2019-04-10T11:39:40.349Z,46.17
2019-04-10T11:42:09.907Z,44.87
2019-04-10T11:44:41.714Z,46.70
2019-04-10T11:47:12.447Z,45.80
2019-04-10T11:49:44.332Z,46.87
2019-04-10T11:52:15.942Z,45.43
2019-04-10T11:54:48.586Z,46.80
2019-04-10T11:57:20.413Z,47.17
2019-04-10T11:59:50.381Z,47.47
2019-04-10T12:02:21.870Z,46.03
2019-04-10T12:04:55.899Z,47.50
2019-04-10T12:12:28.053Z,47.80
2019-04-10T12:14:58.210Z,47.30
2019-04-10T12:17:28.350Z,46.55
2019-04-10T12:19:58.544Z,46.87
2019-04-10T12:22:29.589Z,49.17
2019-04-10T12:25:00.669Z,47.27
2019-04-10T12:27:31.429Z,51.10
2019-04-10T12:30:02.819Z,51.47
2019-04-10T12:32:33.171Z,50.63
2019-04-10T12:35:04.679Z,51.20
2019-04-10T12:37:35.115Z,50.37
2019-04-10T12:40:05.552Z,50.20
2019-04-10T12:42:36.542Z,50.40
2019-04-10T12:45:08.255Z,51.20
2019-04-10T12:47:38.420Z,54.33
2019-04-10T12:50:08.659Z,52.10
2019-04-10T12:52:38.845Z,55.50
2019-04-10T12:55:10.001Z,53.30
2019-04-10T12:57:41.381Z,52.90
2019-04-10T13:00:14.260Z,53.50
2019-04-10T13:02:44.830Z,55.23
2019-04-10T13:05:15.367Z,53.93
2019-04-10T13:07:45.644Z,54.20
2019-04-10T13:10:15.820Z,54.10
2019-04-10T13:12:46.966Z,55.73
2019-04-10T13:15:19.311Z,53.70
2019-04-10T13:17:49.756Z,55.07
2019-04-10T13:20:19.958Z,55.47
2019-04-10T13:22:50.704Z,53.50
2019-04-10T13:25:21.952Z,53.93
2019-04-10T13:27:52.785Z,56.17
2019-04-10T13:30:23.067Z,52.55
2019-04-10T13:32:53.124Z,55.70
2019-04-10T13:35:24.117Z,54.77
2019-04-10T13:37:54.854Z,55.90
2019-04-10T13:40:25.754Z,55.43
2019-04-10T13:42:55.876Z,54.93
2019-04-10T13:45:27.076Z,52.33
2019-04-10T13:47:57.325Z,54.73
2019-04-10T13:50:27.521Z,52.83
2019-04-10T13:52:57.664Z,53.90
2019-04-10T13:55:28.439Z,54.00
2019-04-10T13:57:59.959Z,53.02
2019-04-10T14:00:41.153Z,55.33
2019-04-10T14:03:12.226Z,53.97
2019-04-10T14:05:46.635Z,54.40
2019-04-10T14:08:17.233Z,53.53
2019-04-10T14:10:47.395Z,52.87
2019-04-10T14:13:17.884Z,56.00
2019-04-10T14:15:48.463Z,55.40
2019-04-10T14:18:18.852Z,54.83
2019-04-10T14:20:48.936Z,51.20
2019-04-10T14:23:22.351Z,51.93
2019-04-10T14:26:14.364Z,52.20
2019-04-10T14:28:44.996Z,51.60
2019-04-10T14:31:23.107Z,52.67
2019-04-10T14:33:53.342Z,54.43
2019-04-10T14:36:24.358Z,53.60
2019-04-10T14:38:56.166Z,53.00
2019-04-10T14:41:27.522Z,55.23
2019-04-10T14:43:57.857Z,54.80
2019-04-10T14:46:28.422Z,53.00
2019-04-10T14:48:58.677Z,53.17
2019-04-10T14:51:28.773Z,53.63
2019-04-10T14:53:59.558Z,54.17
2019-04-10T14:56:30.476Z,54.43
2019-04-10T14:59:02.004Z,53.83
2019-04-10T15:01:32.358Z,53.05
2019-04-10T15:04:02.688Z,52.47
2019-04-10T15:06:33.390Z,52.90
2019-04-10T15:09:06.131Z,54.25
2019-04-10T15:11:36.409Z,51.97
2019-04-10T15:14:07.630Z,54.97
2019-04-10T15:16:39.037Z,52.70
2019-04-10T15:19:10.034Z,53.90
2019-04-10T15:21:40.231Z,54.03
2019-04-10T15:24:11.057Z,54.93
2019-04-10T15:26:41.400Z,53.90
2019-04-10T15:29:12.208Z,54.07
2019-04-10T15:31:42.427Z,54.63
2019-04-10T15:34:12.503Z,54.18
2019-04-10T15:36:44.741Z,55.70
2019-04-10T15:39:14.809Z,53.13
2019-04-10T15:41:45.533Z,55.43
2019-04-10T15:44:16.364Z,53.23
2019-04-10T15:46:46.968Z,54.10
2019-04-10T15:49:17.418Z,56.77
2019-04-10T15:51:47.719Z,57.55
2019-04-10T15:54:18.080Z,55.63
2019-04-10T15:56:48.438Z,52.97
2019-04-10T15:59:19.793Z,57.60
2019-04-10T16:01:51.075Z,55.37
2019-04-10T16:04:21.996Z,54.80
2019-04-10T16:06:52.134Z,56.63
2019-04-10T16:09:23.239Z,53.67
2019-04-10T16:12:00.868Z,53.63
2019-04-10T16:14:32.064Z,54.13
2019-04-10T16:17:23.871Z,54.30
2019-04-10T16:20:09.502Z,53.93
2019-04-10T16:22:46.766Z,56.77
2019-04-10T16:25:30.098Z,51.23
2019-04-10T16:28:02.194Z,53.77
2019-04-10T16:30:32.959Z,52.03
2019-04-10T16:33:03.219Z,53.13
2019-04-10T16:35:35.445Z,59.43
2019-04-10T16:38:06.896Z,54.03
2019-04-10T16:40:38.284Z,52.10
2019-04-10T16:43:09.307Z,54.80
2019-04-10T16:45:40.524Z,53.40
2019-04-10T16:48:10.908Z,51.47
2019-04-10T16:50:41.011Z,52.17
2019-04-10T16:53:11.832Z,53.47
2019-04-10T16:55:43.069Z,52.70
2019-04-10T16:58:13.727Z,53.30
2019-04-10T17:00:45.208Z,52.90
2019-04-10T17:03:15.692Z,52.70
2019-04-10T17:05:46.039Z,53.27
2019-04-10T17:08:16.397Z,53.20
2019-04-10T17:10:46.731Z,54.30
2019-04-10T17:13:18.219Z,54.20
2019-04-10T17:15:49.937Z,55.43
2019-04-10T17:18:24.852Z,55.07
2019-04-10T17:20:57.095Z,53.10
2019-04-10T17:23:27.448Z,53.80
2019-04-10T17:25:58.247Z,53.40
2019-04-10T17:28:28.675Z,51.43
2019-04-10T17:31:00.171Z,56.53
2019-04-10T17:33:32.153Z,52.67
2019-04-10T17:36:02.721Z,54.87
2019-04-10T17:38:34.713Z,55.90
2019-04-10T17:41:04.870Z,53.60
2019-04-10T17:43:35.188Z,54.10
2019-04-10T17:46:05.305Z,54.47
2019-04-10T17:48:37.299Z,52.93
2019-04-10T17:51:07.992Z,50.98
2019-04-10T17:53:38.114Z,53.50
2019-04-10T17:56:08.488Z,52.97
2019-04-10T17:58:38.687Z,53.50
2019-04-10T18:01:13.080Z,52.67
2019-04-10T18:03:51.659Z,52.73
2019-04-10T18:06:15.328Z,53.00
2019-04-10T18:08:45.522Z,51.97
2019-04-10T18:11:16.224Z,51.70
2019-04-10T18:13:46.857Z,51.97
2019-04-10T18:16:17.890Z,49.67
2019-04-10T18:18:48.631Z,52.80
2019-04-10T18:21:18.815Z,52.90
2019-04-10T18:23:49.535Z,53.60
2019-04-10T18:26:21.079Z,52.97
2019-04-10T18:28:51.994Z,52.27
2019-04-10T18:31:25.127Z,56.57
2019-04-10T18:33:55.209Z,54.67
2019-04-10T18:36:25.558Z,57.07
2019-04-10T18:38:55.893Z,55.17
2019-04-10T18:41:26.213Z,53.47
2019-04-10T18:43:56.480Z,57.40
2019-04-10T18:46:27.111Z,53.63
2019-04-10T18:48:58.896Z,53.70
2019-04-10T18:51:29.915Z,56.48
2019-04-10T18:54:01.509Z,55.47
2019-04-10T18:56:33.384Z,54.70
2019-04-10T18:59:18.477Z,52.87
2019-04-10T19:01:59.458Z,53.83
2019-04-10T19:04:37.165Z,53.50
2019-04-10T19:07:07.605Z,52.67
2019-04-10T19:09:38.936Z,54.03
2019-04-10T19:12:10.703Z,53.70
2019-04-10T19:14:42.465Z,53.27
2019-04-10T19:17:13.317Z,53.30
2019-04-10T19:19:45.381Z,52.67
2019-04-10T19:22:20.195Z,53.50
2019-04-10T19:24:54.378Z,50.07
2019-04-10T19:27:26.615Z,51.90
2019-04-10T19:29:57.213Z,51.60
2019-04-10T19:32:33.281Z,54.27
2019-04-10T19:35:04.646Z,51.17
2019-04-10T19:37:36.767Z,52.37
2019-04-10T19:40:09.499Z,55.30
2019-04-10T19:42:40.029Z,54.17
2019-04-10T19:45:11.890Z,50.90
2019-04-10T19:47:44.117Z,52.47
2019-04-10T19:50:17.537Z,52.43
2019-04-10T19:52:47.107Z,53.57
2019-04-10T19:55:19.811Z,51.90
2019-04-10T19:57:53.364Z,53.53
2019-04-10T20:00:32.618Z,52.50
2019-04-10T20:03:06.104Z,53.17
2019-04-10T20:05:37.274Z,54.00
2019-04-10T20:08:07.858Z,50.90
2019-04-10T20:10:38.819Z,53.70
2019-04-10T20:13:09.348Z,52.80
2019-04-10T20:15:39.757Z,52.30
2019-04-10T20:18:10.687Z,50.50
2019-04-10T20:20:41.614Z,49.93
2019-04-10T20:23:12.725Z,54.00
2019-04-10T20:25:44.124Z,52.20
2019-04-10T20:28:14.348Z,51.37
2019-04-10T20:30:44.759Z,52.20
2019-04-10T20:33:15.115Z,50.75
2019-04-10T20:35:46.610Z,50.23
2019-04-10T20:38:17.599Z,51.90
2019-04-10T20:40:47.952Z,50.10
2019-04-10T20:43:18.570Z,50.00
2019-04-10T20:45:49.668Z,48.80
2019-04-10T20:48:20.367Z,51.83
2019-04-10T20:50:50.921Z,49.77
2019-04-10T20:53:22.116Z,49.53
2019-04-10T20:55:52.551Z,51.67
2019-04-10T20:58:22.678Z,49.77
2019-04-10T21:00:52.893Z,49.37
2019-04-10T21:03:23.220Z,49.90
2019-04-10T21:05:53.409Z,50.50
2019-04-10T21:08:23.491Z,50.40
2019-04-10T21:10:54.721Z,51.43
2019-04-10T21:13:25.399Z,49.83
2019-04-10T21:15:55.506Z,47.57
2019-04-10T21:18:25.536Z,50.17
2019-04-10T21:20:55.635Z,51.37
2019-04-10T21:23:29.270Z,50.23
2019-04-10T21:25:59.599Z,48.03
2019-04-10T21:28:30.561Z,50.30
2019-04-10T21:31:38.572Z,50.53
2019-04-10T21:34:37.061Z,51.13
2019-04-10T21:37:08.131Z,50.47
2019-04-10T21:39:38.464Z,49.67
2019-04-10T21:42:17.968Z,50.70
2019-04-10T21:44:40.597Z,50.70
2019-04-10T21:47:11.099Z,50.67
2019-04-10T21:49:44.198Z,49.30
2019-04-10T21:52:14.468Z,47.80
2019-04-10T21:54:51.162Z,48.27
2019-04-10T21:57:16.307Z,51.05
2019-04-10T21:59:47.502Z,49.73
2019-04-10T22:02:17.952Z,49.40
2019-04-10T22:04:48.059Z,46.57
2019-04-10T22:07:29.589Z,47.87
2019-04-10T22:10:15.386Z,48.27
2019-04-10T22:12:48.884Z,45.20
2019-04-10T22:15:27.323Z,47.95
2019-04-10T22:17:58.642Z,48.67
2019-04-10T22:20:29.743Z,45.90
2019-04-10T22:23:00.167Z,46.10
2019-04-10T22:25:30.271Z,46.77
2019-04-10T22:28:00.612Z,46.87
2019-04-10T22:30:30.897Z,48.17
2019-04-10T22:33:01.024Z,48.67
2019-04-10T22:35:31.442Z,46.10
2019-04-10T22:38:02.668Z,50.30
2019-04-10T22:40:33.343Z,46.80
2019-04-10T22:43:03.435Z,46.30
2019-04-10T22:45:34.617Z,45.70
2019-04-10T22:48:04.752Z,49.10
2019-04-10T22:50:34.879Z,48.10
2019-04-10T22:53:05.032Z,45.60
2019-04-10T22:55:35.715Z,47.70
2019-04-10T22:58:06.038Z,44.90
2019-04-10T23:00:36.199Z,45.77
2019-04-10T23:03:06.285Z,46.10
2019-04-10T23:05:36.535Z,44.70
2019-04-10T23:08:07.402Z,46.53
2019-04-10T23:10:37.557Z,44.90
2019-04-10T23:13:08.983Z,44.90
2019-04-10T23:15:39.849Z,44.70
2019-04-10T23:18:10.052Z,44.90
2019-04-10T23:20:40.080Z,45.70
2019-04-10T23:23:10.636Z,44.40
2019-04-10T23:25:40.779Z,39.77
2019-04-10T23:28:11.477Z,42.53
2019-04-10T23:30:41.692Z,40.98
2019-04-10T23:33:12.178Z,41.98
2019-04-10T23:35:43.318Z,41.13
2019-04-10T23:38:13.562Z,41.90
2019-04-10T23:40:43.639Z,37.37
2019-04-10T23:43:16.621Z,38.90
2019-04-10T23:45:46.062Z,38.57
2019-04-10T23:48:17.472Z,38.08
2019-04-10T23:50:48.298Z,38.43
2019-04-10T23:53:18.404Z,37.23
2019-04-10T23:55:48.573Z,37.55
2019-04-10T23:58:18.656Z,37.50
